Time;durP1;ratioP1;P1;durP2;ratioP2;P2;SDS_P1;SDS_P2;PMS_P1;PMS_P2;Temp;Humidity;BMP_temperature;BMP_pressure;BME280_temperature;BME280_humidity;BME280_pressure;Samples;Min_cycle;Max_cycle;Signal;HPM_P1;HPM_P2
2021/05/31 00:02:23;;;;;;;;;;;;;;;6.42;82.66;95811.38;1830743;78;20183;-63
2021/05/31 00:04:50;;;;;;;;;;;;;;;6.49;83.44;95808.75;1831262;78;20152;-64
2021/05/31 00:07:18;;;;;;;;;;;;;;;6.65;83.03;95808.34;1831165;78;20136;-64
2021/05/31 00:09:46;;;;;;;;;;;;;;;6.72;82.65;95801.33;1830891;78;20525;-64
2021/05/31 00:12:15;;;;;;;;;;;;;;;6.76;82.51;95799.16;1831227;78;20197;-64
2021/05/31 00:14:43;;;;;;;;;;;;;;;6.89;82.39;95807.44;1831083;78;20168;-64
2021/05/31 00:17:10;;;;;;;;;;;;;;;6.99;82.03;95799.58;1830969;78;20137;-64
2021/05/31 00:19:37;;;;;;;;;;;;;;;7.11;81.57;95798.25;1831209;78;20137;-64
2021/05/31 00:22:04;;;;;;;;;;;;;;;7.27;81.20;95800.39;1831099;78;20164;-65
2021/05/31 00:24:30;;;;;;;;;;;;;;;7.42;80.54;95802.10;1831037;78;20200;-64
2021/05/31 00:26:57;;;;;;;;;;;;;;;7.46;80.14;95792.91;1831233;78;20223;-65
2021/05/31 00:29:24;;;;;;;;;;;;;;;7.53;80.24;95790.70;1830819;78;20215;-64
2021/05/31 00:31:53;;;;;;;;;;;;;;;7.51;80.51;95790.23;1831132;78;20152;-65
2021/05/31 00:34:19;;;;;;;;;;;;;;;7.65;80.47;95783.19;1833249;78;20124;-64
2021/05/31 00:36:45;;;;;;;;;;;;;;;7.66;80.48;95786.27;1833075;78;20148;-64
2021/05/31 00:39:12;;;;;;;;;;;;;;;7.65;80.39;95781.88;1833249;78;20137;-64
2021/05/31 00:41:43;;;;;;;;;;;;;;;7.65;80.79;95783.19;1833222;78;20461;-64
2021/05/31 00:44:07;;;;;;;;;;;;;;;7.65;80.85;95785.81;1832663;78;20164;-64
2021/05/31 00:46:34;;;;;;;;;;;;;;;7.72;80.75;95780.97;1832993;78;20164;-64
2021/05/31 00:49:00;;;;;;;;;;;;;;;7.74;80.28;95786.23;1801145;78;20481;-64
2021/05/31 00:51:28;;;;;;;;;;;;;;;7.76;80.00;95787.97;1833136;78;20156;-64
2021/05/31 00:53:55;;;;;;;;;;;;;;;7.67;80.20;95778.81;1833278;78;20191;-65
2021/05/31 00:56:21;;;;;;;;;;;;;;;7.58;80.78;95772.27;1833206;78;20164;-64
2021/05/31 00:58:47;;;;;;;;;;;;;;;7.48;81.92;95774.05;1833204;78;20144;-64
2021/05/31 01:01:17;;;;;;;;;;;;;;;7.47;82.29;95767.52;1833203;78;20485;-65
2021/05/31 01:03:43;;;;;;;;;;;;;;;7.46;82.53;95772.31;1833166;78;20155;-64
2021/05/31 01:06:12;;;;;;;;;;;;;;;7.48;82.25;95770.56;1832989;78;20160;-64
2021/05/31 01:09:11;;;;;;;;;;;;;;;7.50;81.96;95760.94;1833200;78;20136;-64
2021/05/31 01:12:09;;;;;;;;;;;;;;;7.50;81.87;95763.11;1832992;78;20152;-63
2021/05/31 01:14:39;;;;;;;;;;;;;;;7.48;81.74;95762.69;1833235;78;20152;-64
2021/05/31 01:17:08;;;;;;;;;;;;;;;7.43;81.47;95766.64;1832979;78;20155;-64
2021/05/31 01:19:51;;;;;;;;;;;;;;;7.33;81.57;95764.52;1832135;78;20497;-64
2021/05/31 01:22:22;;;;;;;;;;;;;;;7.19;82.00;95764.11;1833219;78;20121;-64
2021/05/31 01:24:55;;;;;;;;;;;;;;;7.11;82.26;95761.52;1833193;78;20180;-64
2021/05/31 01:27:28;;;;;;;;;;;;;;;7.03;82.73;95754.08;1832630;78;20168;-65
2021/05/31 01:30:00;;;;;;;;;;;;;;;6.90;82.69;95758.06;1831155;78;20208;-65
2021/05/31 01:32:33;;;;;;;;;;;;;;;6.76;83.30;95754.58;1830989;78;20140;-64
2021/05/31 01:35:02;;;;;;;;;;;;;;;6.68;82.85;95759.83;1817017;79;20173;-64
2021/05/31 01:37:29;;;;;;;;;;;;;;;6.61;82.48;95758.08;1820371;79;20176;-64
2021/05/31 01:39:58;;;;;;;;;;;;;;;6.56;82.62;95758.52;1820209;79;20185;-64
2021/05/31 01:42:26;;;;;;;;;;;;;;;6.55;82.77;95753.27;1820468;79;20177;-64
2021/05/31 01:44:53;;;;;;;;;;;;;;;6.45;82.99;95758.53;1820256;79;20168;-64
2021/05/31 01:47:20;;;;;;;;;;;;;;;6.40;82.70;95762.00;1819930;79;20153;-64
2021/05/31 01:49:46;;;;;;;;;;;;;;;6.37;82.15;95755.02;1820454;79;20164;-64
2021/05/31 01:52:13;;;;;;;;;;;;;;;6.29;82.13;95758.94;1820254;79;20477;-64
2021/05/31 01:54:39;;;;;;;;;;;;;;;6.25;83.19;95755.03;1820235;79;20176;-64
2021/05/31 01:57:07;;;;;;;;;;;;;;;6.22;82.81;95755.91;1820281;79;20157;-64
2021/05/31 01:59:34;;;;;;;;;;;;;;;6.24;83.19;95754.13;1820237;79;20149;-64
2021/05/31 02:02:00;;;;;;;;;;;;;;;6.16;82.61;95755.88;1819979;79;20474;-64
2021/05/31 02:04:27;;;;;;;;;;;;;;;6.15;82.47;95755.87;1820219;79;20458;-65
2021/05/31 02:06:54;;;;;;;;;;;;;;;6.06;83.36;95747.58;1820274;79;20497;-64
2021/05/31 02:09:22;;;;;;;;;;;;;;;6.05;83.05;95755.87;1820202;79;20176;-64
2021/05/31 02:12:10;;;;;;;;;;;;;;;6.01;83.33;95751.94;1820466;79;20486;-64
2021/05/31 02:14:54;;;;;;;;;;;;;;;6.11;83.27;95755.45;1820058;79;20137;-64
2021/05/31 02:17:30;;;;;;;;;;;;;;;6.06;82.53;95754.13;1819254;79;20168;-64
2021/05/31 02:19:59;;;;;;;;;;;;;;;5.98;82.93;95750.19;1820196;79;20133;-64
2021/05/31 02:22:26;;;;;;;;;;;;;;;6.01;82.84;95752.80;1820048;79;20122;-64
2021/05/31 02:24:54;;;;;;;;;;;;;;;5.99;83.16;95749.30;1820277;79;20141;-64
2021/05/31 02:27:21;;;;;;;;;;;;;;;5.97;82.80;95758.03;1793729;79;20576;-64
2021/05/31 02:29:48;;;;;;;;;;;;;;;6.00;82.46;95759.38;1793049;79;20137;-64
2021/05/31 02:32:14;;;;;;;;;;;;;;;5.94;82.10;95756.72;1820304;79;20169;-64
2021/05/31 02:34:40;;;;;;;;;;;;;;;5.95;82.13;95754.12;1832527;78;20181;-64
2021/05/31 02:37:09;;;;;;;;;;;;;;;5.90;81.80;95751.03;1833143;78;20152;-64
2021/05/31 02:39:35;;;;;;;;;;;;;;;5.84;81.96;95755.79;1833395;78;20152;-64
2021/05/31 02:42:02;;;;;;;;;;;;;;;5.80;81.81;95748.81;1833259;78;20172;-64
2021/05/31 02:44:29;;;;;;;;;;;;;;;5.81;81.81;95750.11;1833110;78;20164;-64
2021/05/31 02:46:55;;;;;;;;;;;;;;;5.62;82.24;95743.97;1833088;78;20516;-64
2021/05/31 02:49:21;;;;;;;;;;;;;;;5.61;82.69;95748.74;1833182;78;20137;-65
2021/05/31 02:51:48;;;;;;;;;;;;;;;5.55;82.71;95749.19;1833260;78;20478;-64
2021/05/31 02:54:14;;;;;;;;;;;;;;;5.52;82.45;95748.73;1833289;78;20291;-64
2021/05/31 02:56:40;;;;;;;;;;;;;;;5.52;82.51;95739.58;1833030;78;20457;-64
2021/05/31 02:59:07;;;;;;;;;;;;;;;5.46;82.84;95747.39;1801258;78;20133;-64
2021/05/31 03:01:33;;;;;;;;;;;;;;;5.40;83.25;95743.45;1832838;78;20160;-65
2021/05/31 03:04:02;;;;;;;;;;;;;;;5.43;82.96;95750.87;1832874;78;20493;-64
2021/05/31 03:06:28;;;;;;;;;;;;;;;5.46;82.96;95751.31;1833291;78;20156;-64
2021/05/31 03:08:54;;;;;;;;;;;;;;;5.40;83.04;95752.17;1833398;78;20144;-64
2021/05/31 03:11:21;;;;;;;;;;;;;;;5.38;83.13;95753.03;1833084;78;20504;-64
2021/05/31 03:13:47;;;;;;;;;;;;;;;5.31;83.26;95752.12;1833364;78;20137;-65
2021/05/31 03:16:13;;;;;;;;;;;;;;;5.30;83.46;95756.06;1833284;78;20496;-64
2021/05/31 03:18:39;;;;;;;;;;;;;;;5.26;82.85;95748.61;1833075;78;20172;-64
2021/05/31 03:21:06;;;;;;;;;;;;;;;5.35;82.68;95744.73;1833179;78;20148;-64
2021/05/31 03:23:32;;;;;;;;;;;;;;;5.45;82.80;95746.96;1833387;78;20160;-64
2021/05/31 03:25:58;;;;;;;;;;;;;;;5.50;82.96;95746.55;1833221;78;20157;-64
2021/05/31 03:28:24;;;;;;;;;;;;;;;5.49;83.34;95755.69;1833467;78;20164;-64
2021/05/31 03:30:51;;;;;;;;;;;;;;;5.48;84.01;95751.33;1833253;78;20172;-64
2021/05/31 03:33:17;;;;;;;;;;;;;;;5.50;83.86;95751.78;1832480;78;20136;-64
2021/05/31 03:35:43;;;;;;;;;;;;;;;5.59;84.19;95750.92;1831413;78;20160;-62
2021/05/31 03:38:10;;;;;;;;;;;;;;;5.64;85.04;95759.25;1831176;78;20187;-63
2021/05/31 03:40:36;;;;;;;;;;;;;;;5.81;84.82;95751.86;1830943;78;20208;-63
2021/05/31 03:43:02;;;;;;;;;;;;;;;5.96;84.49;95762.84;1831116;78;20120;-62
2021/05/31 03:45:29;;;;;;;;;;;;;;;6.13;84.29;95751.95;1831087;78;20161;-62
2021/05/31 03:47:55;;;;;;;;;;;;;;;6.21;84.54;95759.83;1831179;78;20220;-63
2021/05/31 03:50:22;;;;;;;;;;;;;;;6.29;85.41;95760.25;1831293;78;20239;-64
2021/05/31 03:52:49;;;;;;;;;;;;;;;6.42;85.85;95762.44;1831215;78;20243;-62
2021/05/31 03:55:16;;;;;;;;;;;;;;;6.65;85.33;95756.31;1831140;78;20156;-62
2021/05/31 03:57:43;;;;;;;;;;;;;;;6.85;84.67;95747.98;1831154;78;20128;-63
2021/05/31 04:00:11;;;;;;;;;;;;;;;7.08;84.11;95749.27;1830977;78;20212;-63
2021/05/31 04:02:39;;;;;;;;;;;;;;;7.21;83.39;95746.62;1831081;78;20521;-63
2021/05/31 04:05:08;;;;;;;;;;;;;;;7.36;82.72;95734.75;1831150;78;20173;-63
2021/05/31 04:13:04;;;;;;;;;;;;;;;7.71;81.05;95745.52;1831316;78;20156;-63
2021/05/31 04:15:31;;;;;;;;;;;;;;;7.70;80.48;95743.33;1831089;78;20156;-63
2021/05/31 04:17:57;;;;;;;;;;;;;;;7.68;80.90;95737.66;1831073;78;20128;-63
2021/05/31 04:20:23;;;;;;;;;;;;;;;7.72;80.98;95732.83;1831196;78;20161;-63
2021/05/31 04:22:50;;;;;;;;;;;;;;;7.76;80.37;95735.85;1831190;78;20557;-63
2021/05/31 04:25:16;;;;;;;;;;;;;;;7.73;80.04;95728.86;1831240;78;20165;-63
2021/05/31 04:27:43;;;;;;;;;;;;;;;7.66;80.06;95725.86;1831078;78;20548;-63
2021/05/31 04:30:11;;;;;;;;;;;;;;;7.60;80.50;95724.56;1831310;78;20138;-63
2021/05/31 04:32:37;;;;;;;;;;;;;;;7.62;80.78;95731.13;1830886;78;20152;-64
2021/05/31 04:35:04;;;;;;;;;;;;;;;7.68;80.52;95733.72;1837874;78;20148;-64
2021/05/31 04:37:33;;;;;;;;;;;;;;;7.76;80.67;95728.88;1839001;78;20156;-63
2021/05/31 04:39:59;;;;;;;;;;;;;;;7.81;80.60;95734.07;1839577;78;20136;-63
2021/05/31 04:42:26;;;;;;;;;;;;;;;7.86;80.96;95731.02;1838835;78;20181;-63
2021/05/31 04:44:52;;;;;;;;;;;;;;;8.01;80.96;95726.08;1839096;78;20137;-63
2021/05/31 04:47:19;;;;;;;;;;;;;;;8.12;80.50;95726.02;1839040;78;20469;-63
2021/05/31 04:49:45;;;;;;;;;;;;;;;8.14;80.97;95720.29;1839030;78;20180;-63
2021/05/31 04:52:11;;;;;;;;;;;;;;;8.14;81.36;95724.23;1838986;78;20151;-63
2021/05/31 04:54:38;;;;;;;;;;;;;;;8.20;80.84;95718.95;1838835;78;20145;-67
2021/05/31 04:57:05;;;;;;;;;;;;;;;8.29;80.69;95718.89;1802969;78;20185;-65
2021/05/31 04:59:31;;;;;;;;;;;;;;;8.40;80.54;95717.06;1802501;80;20480;-64
2021/05/31 05:01:57;;;;;;;;;;;;;;;8.50;81.15;95703.85;1802224;80;20178;-62
2021/05/31 05:04:23;;;;;;;;;;;;;;;8.66;81.58;95706.30;1802306;80;20163;-63
2021/05/31 05:06:50;;;;;;;;;;;;;;;8.86;81.61;95711.38;1802680;80;20134;-64
2021/05/31 05:09:16;;;;;;;;;;;;;;;9.03;81.59;95712.98;1802555;80;20479;-64
2021/05/31 05:11:42;;;;;;;;;;;;;;;9.05;81.34;95713.39;1802743;80;20201;-63
2021/05/31 05:14:08;;;;;;;;;;;;;;;9.13;81.17;95710.67;1802721;80;20483;-63
2021/05/31 05:16:35;;;;;;;;;;;;;;;9.27;81.15;95706.13;1802754;80;20154;-63
2021/05/31 05:19:01;;;;;;;;;;;;;;;9.42;80.75;95705.05;1802531;80;20158;-64
2021/05/31 05:21:27;;;;;;;;;;;;;;;9.52;80.28;95704.07;1802795;80;20161;-62
2021/05/31 05:23:53;;;;;;;;;;;;;;;9.54;80.04;95694.81;1802655;80;20143;-63
2021/05/31 05:26:20;;;;;;;;;;;;;;;9.62;79.50;95703.93;1802736;80;20480;-62
2021/05/31 05:28:50;;;;;;;;;;;;;;;9.59;79.10;95695.63;1802698;80;20455;-63
2021/05/31 05:31:16;;;;;;;;;;;;;;;9.54;79.33;95692.18;1802628;80;20147;-63
2021/05/31 05:33:43;;;;;;;;;;;;;;;9.55;79.42;95703.16;1802485;80;20519;-65
2021/05/31 05:41:33;;;;;;;;;;;;;;;9.64;78.79;95699.06;1802651;80;20175;-64
2021/05/31 05:44:04;;;;;;;;;;;;;;;9.72;78.74;95701.59;1801530;80;20162;-64
2021/05/31 05:48:53;;;;;;;;;;;;;;;9.93;79.36;95693.86;1820109;78;20144;-64
2021/05/31 05:51:21;;;;;;;;;;;;;;;10.06;79.03;95698.50;1833946;78;20473;-63
2021/05/31 05:53:48;;;;;;;;;;;;;;;10.21;79.06;95690.36;1828369;78;20145;-64
2021/05/31 05:56:18;;;;;;;;;;;;;;;10.36;78.78;95684.87;1828140;78;20157;-63
2021/05/31 05:58:45;;;;;;;;;;;;;;;10.53;78.57;95683.28;1826748;78;20156;-64
2021/05/31 06:01:12;;;;;;;;;;;;;;;10.71;77.92;95684.72;1828288;78;20148;-65
2021/05/31 06:03:39;;;;;;;;;;;;;;;10.82;76.47;95674.83;1828293;78;20208;-66
2021/05/31 06:06:07;;;;;;;;;;;;;;;10.97;76.45;95682.05;1828222;78;20157;-66
2021/05/31 06:08:33;;;;;;;;;;;;;;;11.13;76.26;95686.13;1828352;78;20497;-66
2021/05/31 06:11:01;;;;;;;;;;;;;;;11.28;75.62;95681.00;1828380;78;20148;-62
2021/05/31 06:13:27;;;;;;;;;;;;;;;11.44;74.87;95673.63;1828139;78;20473;-65
2021/05/31 06:15:59;;;;;;;;;;;;;;;11.60;74.20;95668.91;1828183;78;20482;-65
2021/05/31 06:18:23;;;;;;;;;;;;;;;11.72;74.50;95662.04;1827906;78;20188;-64
2021/05/31 06:20:50;;;;;;;;;;;;;;;11.87;73.81;95668.80;1828243;78;20153;-65
2021/05/31 06:23:16;;;;;;;;;;;;;;;11.98;73.71;95666.77;1801131;78;20173;-64
2021/05/31 06:25:42;;;;;;;;;;;;;;;12.06;73.34;95662.16;1828292;78;20529;-62
2021/05/31 06:28:08;;;;;;;;;;;;;;;12.11;72.91;95654.13;1828278;78;20157;-66
2021/05/31 06:30:36;;;;;;;;;;;;;;;12.11;72.70;95662.92;1828505;78;20176;-63
2021/05/31 06:33:02;;;;;;;;;;;;;;;12.09;71.54;95662.55;1828156;78;20145;-63
2021/05/31 06:35:29;;;;;;;;;;;;;;;12.04;72.10;95661.78;1828002;78;20184;-63
2021/05/31 06:37:56;;;;;;;;;;;;;;;12.03;71.82;95658.73;1828495;78;20208;-65
2021/05/31 06:40:23;;;;;;;;;;;;;;;11.99;71.64;95659.23;1828372;78;20160;-64
2021/05/31 06:42:49;;;;;;;;;;;;;;;11.94;70.93;95660.25;1828180;78;20180;-65
2021/05/31 06:45:23;;;;;;;;;;;;;;;11.88;71.02;95666.56;1827722;78;20144;-65
2021/05/31 06:47:51;;;;;;;;;;;;;;;11.87;71.24;95668.34;1826907;78;20136;-65
2021/05/31 06:50:17;;;;;;;;;;;;;;;11.83;70.76;95661.34;1824396;78;20172;-66
2021/05/31 06:52:45;;;;;;;;;;;;;;;11.81;70.77;95660.95;1829947;78;20483;-67
2021/05/31 06:55:13;;;;;;;;;;;;;;;11.85;71.31;95661.31;1821743;78;20164;-69
2021/05/31 06:57:40;;;;;;;;;;;;;;;11.96;71.32;95652.70;1825407;78;20140;-63
2021/05/31 07:00:10;;;;;;;;;;;;;;;12.29;71.64;95652.35;1821769;78;20480;-66
2021/05/31 07:02:38;;;;;;;;;;;;;;;12.62;69.01;95647.58;1794071;78;20140;-66
2021/05/31 07:05:08;;;;;;;;;;;;;;;12.85;68.77;95645.66;1826074;78;20160;-67
2021/05/31 07:07:35;;;;;;;;;;;;;;;13.18;68.64;95646.54;1828870;78;20246;-66
2021/05/31 07:10:01;;;;;;;;;;;;;;;13.46;67.89;95647.98;1823767;78;20263;-68
2021/05/31 07:12:27;;;;;;;;;;;;;;;13.66;65.68;95643.84;1824357;78;20138;-65
2021/05/31 07:14:56;;;;;;;;;;;;;;;13.72;65.96;95645.88;1829185;78;20484;-65
2021/05/31 07:17:23;;;;;;;;;;;;;;;13.95;65.73;95633.23;1824840;78;20463;-65
2021/05/31 07:19:50;;;;;;;;;;;;;;;14.14;63.40;95640.16;1830708;78;20156;-65
2021/05/31 07:22:19;;;;;;;;;;;;;;;14.26;64.45;95631.81;1823660;78;20243;-65
2021/05/31 07:24:46;;;;;;;;;;;;;;;14.43;64.57;95636.55;1830603;78;20489;-64
2021/05/31 07:27:12;;;;;;;;;;;;;;;14.37;63.80;95631.92;1839122;78;20132;-64
2021/05/31 07:29:38;;;;;;;;;;;;;;;14.29;64.36;95641.46;1839051;78;20497;-68
2021/05/31 07:32:06;;;;;;;;;;;;;;;14.21;64.81;95640.81;1839123;78;20140;-63
2021/05/31 07:34:33;;;;;;;;;;;;;;;14.10;64.58;95642.95;1837104;78;20469;-63
2021/05/31 07:37:00;;;;;;;;;;;;;;;13.92;64.98;95642.61;1833086;78;20136;-64
2021/05/31 07:39:27;;;;;;;;;;;;;;;13.78;65.40;95648.78;1833300;78;20508;-65
2021/05/31 07:41:53;;;;;;;;;;;;;;;13.69;66.19;95645.11;1833259;78;20168;-66
2021/05/31 07:44:20;;;;;;;;;;;;;;;13.59;66.11;95643.19;1833068;78;20156;-64
2021/05/31 07:46:47;;;;;;;;;;;;;;;13.41;66.14;95645.45;1833354;78;20144;-64
2021/05/31 07:49:13;;;;;;;;;;;;;;;13.36;66.85;95647.83;1833120;78;20136;-65
2021/05/31 07:51:45;;;;;;;;;;;;;;;13.26;66.83;95648.51;1833416;78;20128;-64
2021/05/31 07:54:12;;;;;;;;;;;;;;;13.19;67.27;95645.61;1833267;78;20121;-64
2021/05/31 07:56:39;;;;;;;;;;;;;;;13.12;67.25;95640.07;1833245;78;20156;-67
2021/05/31 07:59:05;;;;;;;;;;;;;;;13.10;67.60;95641.88;1833332;78;20188;-66
2021/05/31 08:01:33;;;;;;;;;;;;;;;13.07;67.60;95639.33;1833212;78;20144;-66
2021/05/31 08:04:00;;;;;;;;;;;;;;;13.03;67.66;95640.31;1833084;78;20173;-66
2021/05/31 08:06:27;;;;;;;;;;;;;;;12.96;68.03;95639.17;1833174;78;20148;-64
2021/05/31 08:08:54;;;;;;;;;;;;;;;12.91;68.03;95642.86;1833226;78;20151;-63
2021/05/31 08:11:20;;;;;;;;;;;;;;;12.81;68.19;95635.61;1833373;78;20141;-64
2021/05/31 08:13:47;;;;;;;;;;;;;;;12.70;68.49;95635.01;1833275;78;20168;-65
2021/05/31 08:16:16;;;;;;;;;;;;;;;12.64;68.80;95637.83;1833309;78;20144;-63
2021/05/31 08:18:42;;;;;;;;;;;;;;;12.54;69.34;95644.67;1833108;78;20149;-63
2021/05/31 08:21:09;;;;;;;;;;;;;;;12.41;70.31;95646.36;1833132;78;20179;-65
2021/05/31 08:23:35;;;;;;;;;;;;;;;12.38;70.58;95643.34;1833339;78;20187;-65
2021/05/31 08:26:01;;;;;;;;;;;;;;;12.32;70.57;95643.04;1833243;78;20144;-65
2021/05/31 08:28:28;;;;;;;;;;;;;;;12.31;70.59;95641.28;1833191;78;20146;-63
2021/05/31 08:30:54;;;;;;;;;;;;;;;12.27;70.86;95646.68;1833003;78;20175;-64
2021/05/31 08:33:21;;;;;;;;;;;;;;;12.22;71.05;95641.95;1832904;78;20498;-64
2021/05/31 08:35:47;;;;;;;;;;;;;;;12.18;71.03;95641.17;1823811;78;20172;-65
2021/05/31 08:38:15;;;;;;;;;;;;;;;12.17;71.22;95638.12;1820386;79;20140;-64
2021/05/31 08:40:41;;;;;;;;;;;;;;;12.15;71.71;95639.07;1820022;79;20165;-65
2021/05/31 08:43:08;;;;;;;;;;;;;;;12.17;71.66;95635.91;1820295;79;20446;-64
2021/05/31 08:45:37;;;;;;;;;;;;;;;12.18;71.77;95641.17;1820097;79;20176;-63
2021/05/31 08:48:03;;;;;;;;;;;;;;;12.20;72.05;95645.98;1820149;79;20153;-63
2021/05/31 08:50:32;;;;;;;;;;;;;;;12.26;71.89;95646.28;1820023;79;20136;-64
2021/05/31 08:52:59;;;;;;;;;;;;;;;12.30;71.83;95651.92;1820208;79;20133;-64
2021/05/31 08:55:27;;;;;;;;;;;;;;;12.32;71.56;95646.11;1820198;79;20180;-67
2021/05/31 08:57:54;;;;;;;;;;;;;;;12.38;71.74;95644.66;1820179;79;20141;-66
2021/05/31 09:00:24;;;;;;;;;;;;;;;12.40;71.16;95644.17;1820207;79;20161;-66
2021/05/31 09:02:53;;;;;;;;;;;;;;;12.45;71.34;95638.77;1820047;79;20152;-66
2021/05/31 09:05:43;;;;;;;;;;;;;;;12.49;71.56;95642.59;1820062;79;20517;-66
2021/05/31 09:08:15;;;;;;;;;;;;;;;12.54;71.90;95640.70;1819894;79;20148;-67
2021/05/31 09:10:45;;;;;;;;;;;;;;;12.57;72.10;95639.75;1820329;79;20176;-66
2021/05/31 09:13:15;;;;;;;;;;;;;;;12.64;72.75;95635.19;1820370;79;20152;-66
2021/05/31 09:15:44;;;;;;;;;;;;;;;12.64;72.63;95632.53;1818267;79;20153;-66
2021/05/31 09:18:09;;;;;;;;;;;;;;;12.58;75.20;95632.25;1820126;79;20149;-66
2021/05/31 09:20:35;;;;;;;;;;;;;;;12.60;74.68;95634.84;1819839;79;20149;-66
2021/05/31 09:23:02;;;;;;;;;;;;;;;12.59;74.71;95632.65;1820067;79;20501;-66
2021/05/31 09:25:35;;;;;;;;;;;;;;;12.54;74.93;95631.44;1819820;79;20152;-66
2021/05/31 09:28:08;;;;;;;;;;;;;;;12.47;75.52;95625.02;1820328;79;20137;-66
2021/05/31 09:30:40;;;;;;;;;;;;;;;12.44;75.28;95634.36;1819890;79;20173;-66
2021/05/31 09:33:13;;;;;;;;;;;;;;;12.49;76.65;95634.66;1820198;79;20505;-66
2021/05/31 09:35:42;;;;;;;;;;;;;;;12.63;77.85;95629.48;1824851;78;20224;-66
2021/05/31 09:38:08;;;;;;;;;;;;;;;12.75;76.37;95631.78;1830369;78;20153;-67
2021/05/31 09:40:35;;;;;;;;;;;;;;;12.88;76.01;95631.03;1831151;78;20172;-67
2021/05/31 09:43:04;;;;;;;;;;;;;;;12.95;75.23;95624.63;1831241;78;20124;-67
2021/05/31 09:45:31;;;;;;;;;;;;;;;12.96;74.71;95617.12;1831086;78;20469;-67
2021/05/31 09:47:59;;;;;;;;;;;;;;;12.94;75.41;95622.44;1831276;78;20163;-66
2021/05/31 09:50:29;;;;;;;;;;;;;;;12.87;75.19;95618.22;1830888;78;20193;-66
2021/05/31 09:53:07;;;;;;;;;;;;;;;12.73;76.56;95619.06;1831335;78;20567;-66
2021/05/31 09:55:38;;;;;;;;;;;;;;;12.59;75.23;95619.41;1831231;78;20145;-66
2021/05/31 09:58:11;;;;;;;;;;;;;;;12.41;75.31;95619.44;1831130;78;20168;-66
2021/05/31 10:00:40;;;;;;;;;;;;;;;12.34;75.03;95627.11;1829662;78;20545;-66
2021/05/31 10:03:17;;;;;;;;;;;;;;;12.21;76.51;95627.87;1831507;78;20156;-66
2021/05/31 10:05:48;;;;;;;;;;;;;;;12.16;76.34;95627.11;1829542;78;20140;-66
2021/05/31 10:10:43;;;;;;;;;;;;;;;12.04;76.99;95618.14;1831462;78;20145;-66
2021/05/31 10:13:10;;;;;;;;;;;;;;;11.90;77.15;95627.74;1831220;78;20129;-67
2021/05/31 10:15:43;;;;;;;;;;;;;;;11.90;77.90;95629.06;1831386;78;20181;-67
2021/05/31 10:18:09;;;;;;;;;;;;;;;11.90;78.05;95618.48;1830515;78;20124;-67
2021/05/31 10:20:39;;;;;;;;;;;;;;;11.90;78.66;95615.84;1831273;78;20160;-66
2021/05/31 10:23:07;;;;;;;;;;;;;;;11.95;78.24;95613.95;1831217;78;20164;-66
2021/05/31 10:25:38;;;;;;;;;;;;;;;12.05;79.43;95604.03;1831102;78;20151;-66
2021/05/31 10:28:12;;;;;;;;;;;;;;;12.14;78.46;95602.47;1831434;78;20137;-66
2021/05/31 10:30:43;;;;;;;;;;;;;;;12.16;77.68;95601.98;1831298;78;20477;-63
2021/05/31 10:33:14;;;;;;;;;;;;;;;12.37;77.03;95596.59;1831352;78;20136;-66
2021/05/31 10:35:40;;;;;;;;;;;;;;;12.55;77.20;95594.81;1831892;78;20152;-66
2021/05/31 10:38:13;;;;;;;;;;;;;;;12.68;76.93;95591.39;1833439;78;20172;-66
2021/05/31 10:40:44;;;;;;;;;;;;;;;12.97;77.56;95597.19;1831593;78;20156;-66
2021/05/31 10:43:13;;;;;;;;;;;;;;;13.38;79.44;95587.24;1833185;78;20137;-67
2021/05/31 10:45:40;;;;;;;;;;;;;;;13.96;79.25;95587.66;1832067;78;20176;-67
2021/05/31 10:48:10;;;;;;;;;;;;;;;14.52;72.70;95574.33;1833401;78;20152;-66
2021/05/31 10:50:46;;;;;;;;;;;;;;;15.05;70.33;95566.28;1833537;78;20140;-66
2021/05/31 10:53:33;;;;;;;;;;;;;;;15.74;72.08;95555.70;1833222;78;20148;-66
2021/05/31 10:56:11;;;;;;;;;;;;;;;16.21;67.35;95554.25;1833290;78;20159;-66
2021/05/31 10:58:49;;;;;;;;;;;;;;;16.68;66.07;95547.83;1833328;78;20137;-66
2021/05/31 11:01:18;;;;;;;;;;;;;;;17.12;64.80;95540.20;1833215;78;20184;-66
2021/05/31 11:03:51;;;;;;;;;;;;;;;17.43;61.91;95533.84;1832475;78;20139;-66
2021/05/31 11:06:20;;;;;;;;;;;;;;;17.59;64.03;95531.78;1833323;78;20148;-66
2021/05/31 11:08:52;;;;;;;;;;;;;;;17.55;60.86;95531.55;1833193;78;20156;-66
2021/05/31 11:11:29;;;;;;;;;;;;;;;17.86;63.80;95523.83;1828497;78;20176;-66
2021/05/31 11:13:58;;;;;;;;;;;;;;;17.87;62.73;95516.71;1833273;78;20216;-67
2021/05/31 11:16:26;;;;;;;;;;;;;;;18.01;60.10;95524.03;1833343;78;20149;-66
2021/05/31 11:19:01;;;;;;;;;;;;;;;17.65;57.42;95520.84;1833386;78;20156;-67
2021/05/31 11:21:31;;;;;;;;;;;;;;;17.20;58.66;95533.56;1832439;78;20149;-67
2021/05/31 11:24:00;;;;;;;;;;;;;;;16.70;59.46;95539.31;1831771;78;20145;-67
2021/05/31 11:26:28;;;;;;;;;;;;;;;16.10;61.21;95545.86;1833247;78;20458;-66
2021/05/31 11:28:56;;;;;;;;;;;;;;;15.35;63.67;95555.44;1833043;78;20160;-66
2021/05/31 11:31:23;;;;;;;;;;;;;;;14.90;66.85;95552.22;1833398;78;20168;-66
2021/05/31 11:33:54;;;;;;;;;;;;;;;14.57;68.57;95561.80;1833214;78;20130;-66
2021/05/31 11:36:38;;;;;;;;;;;;;;;14.34;68.70;95558.57;1824814;78;20487;-66
2021/05/31 11:39:10;;;;;;;;;;;;;;;13.91;70.53;95556.02;1820489;79;20176;-66
2021/05/31 11:41:43;;;;;;;;;;;;;;;13.77;69.98;95555.58;1820172;79;20477;-66
2021/05/31 11:44:12;;;;;;;;;;;;;;;13.51;71.02;95548.45;1820034;79;20140;-66
2021/05/31 11:46:53;;;;;;;;;;;;;;;13.30;73.21;95545.97;1820323;79;20160;-67
2021/05/31 11:49:21;;;;;;;;;;;;;;;13.14;75.10;95542.42;1820166;79;20493;-66
2021/05/31 11:52:06;;;;;;;;;;;;;;;13.27;76.10;95548.25;1819976;79;20168;-66
2021/05/31 11:54:35;;;;;;;;;;;;;;;13.36;75.78;95545.80;1819164;79;20156;-66
2021/05/31 11:57:07;;;;;;;;;;;;;;;13.49;75.54;95541.85;1820144;79;20157;-66
2021/05/31 11:59:36;;;;;;;;;;;;;;;13.66;75.30;95545.75;1820183;79;20121;-66
2021/05/31 12:02:11;;;;;;;;;;;;;;;13.69;75.07;95545.67;1820251;79;20184;-66
2021/05/31 12:04:38;;;;;;;;;;;;;;;13.77;73.28;95539.20;1818673;79;20145;-66
2021/05/31 12:07:06;;;;;;;;;;;;;;;13.79;73.49;95541.81;1820014;79;20482;-66
2021/05/31 12:09:39;;;;;;;;;;;;;;;13.90;73.15;95531.71;1820364;79;20157;-66
2021/05/31 12:12:06;;;;;;;;;;;;;;;13.95;72.03;95528.91;1819297;79;20153;-69
2021/05/31 12:14:53;;;;;;;;;;;;;;;14.06;73.84;95539.59;1820226;79;20141;-66
2021/05/31 12:17:22;;;;;;;;;;;;;;;14.33;74.59;95541.36;1787950;79;20181;-66
2021/05/31 12:19:50;;;;;;;;;;;;;;;14.70;75.53;95537.86;1820233;79;20153;-66
2021/05/31 12:22:18;;;;;;;;;;;;;;;14.90;72.71;95538.94;1819933;79;20153;-66
2021/05/31 12:24:50;;;;;;;;;;;;;;;14.84;69.99;95539.14;1820013;79;20156;-67
2021/05/31 12:27:25;;;;;;;;;;;;;;;14.60;68.77;95541.77;1819510;79;20145;-66
2021/05/31 12:29:52;;;;;;;;;;;;;;;14.10;69.45;95544.79;1820250;79;20155;-66
2021/05/31 12:32:21;;;;;;;;;;;;;;;13.92;69.99;95551.10;1819913;79;20498;-67
2021/05/31 12:34:48;;;;;;;;;;;;;;;13.62;70.02;95548.50;1820104;79;20148;-66
2021/05/31 12:37:16;;;;;;;;;;;;;;;13.24;70.30;95548.31;1829520;78;20128;-66
2021/05/31 12:39:47;;;;;;;;;;;;;;;13.08;71.42;95543.05;1831088;78;20152;-66
2021/05/31 12:42:20;;;;;;;;;;;;;;;12.89;71.01;95540.07;1831216;78;20481;-67
2021/05/31 12:44:47;;;;;;;;;;;;;;;12.70;72.41;95537.95;1830072;78;20192;-66
2021/05/31 12:47:17;;;;;;;;;;;;;;;12.64;71.63;95542.53;1830977;78;20153;-66
2021/05/31 12:49:49;;;;;;;;;;;;;;;12.64;72.72;95532.81;1829546;78;20144;-66
2021/05/31 12:52:33;;;;;;;;;;;;;;;12.72;73.53;95529.95;1829454;78;20216;-66
2021/05/31 12:55:09;;;;;;;;;;;;;;;12.75;74.91;95535.15;1831253;78;20485;-67
2021/05/31 12:57:41;;;;;;;;;;;;;;;12.82;75.25;95527.91;1830786;78;20156;-66
2021/05/31 13:00:11;;;;;;;;;;;;;;;12.81;74.82;95524.41;1830988;78;20152;-66
2021/05/31 13:02:43;;;;;;;;;;;;;;;12.79;74.36;95522.25;1831168;78;20135;-66
2021/05/31 13:05:12;;;;;;;;;;;;;;;12.66;73.04;95527.48;1831126;78;20164;-66
2021/05/31 13:07:47;;;;;;;;;;;;;;;12.50;73.04;95533.66;1830958;78;20256;-66
2021/05/31 13:10:12;;;;;;;;;;;;;;;12.39;73.41;95539.22;1830282;78;20469;-66
2021/05/31 13:12:56;;;;;;;;;;;;;;;12.42;74.69;95540.45;1831181;78;20516;-66
2021/05/31 13:15:42;;;;;;;;;;;;;;;12.50;75.76;95534.52;1831040;78;20153;-66